Kostjvkovici, Belarus
Current Conditions -  °F | °C
As of 10:30 AM on Saturday 29 Nov 2014 (Local Time) from UMGG Reporting Station
Broken Clouds Broken Clouds  
Wind Chill: 10°   Ceiling: 2600
Heat Index: 21°   Visibility: 6mi
Dew Point: 19°   Wind: 11mph
Humidity: 93%   Direction: 60°ENE
Pressure: 30.42"   Gusts: NA
Location:  53.35°N, 32.07°E
Report Text: UMGG 290830Z 06005MPS 9000 BKN026 M06/M07 Q1030 R10/400252NOSIG
Loading
Personal Weather Stations






























Interactive Weather Map New forecast layout! Learn more

10-Day Weather Forecast

Advertisements
Track Severe Weather on mobile